createdAt,value
2019-03-03T00:01:54.395Z,7.80
2019-03-03T00:04:24.863Z,7.80
2019-03-03T00:06:55.104Z,7.80
2019-03-03T00:09:25.781Z,7.80
2019-03-03T00:11:56.391Z,7.80
2019-03-03T00:14:26.947Z,7.80
2019-03-03T00:16:57.646Z,7.80
2019-03-03T00:19:28.151Z,7.80
2019-03-03T00:21:58.335Z,7.80
2019-03-03T00:24:28.513Z,7.80
2019-03-03T00:26:58.962Z,7.80
2019-03-03T00:29:29.621Z,7.80
2019-03-03T00:31:59.995Z,7.80
2019-03-03T00:34:30.550Z,7.80
2019-03-03T00:37:19.545Z,7.90
2019-03-03T00:40:07.481Z,7.90
2019-03-03T00:42:53.152Z,7.90
2019-03-03T00:45:34.229Z,7.90
2019-03-03T00:48:22.564Z,7.90
2019-03-03T00:50:59.948Z,7.90
2019-03-03T00:53:38.260Z,7.90
2019-03-03T00:56:29.970Z,7.90
2019-03-03T00:59:22.103Z,7.90
2019-03-03T01:02:01.437Z,7.90
2019-03-03T01:04:56.215Z,7.90
2019-03-03T01:07:42.710Z,7.90
2019-03-03T01:10:18.358Z,7.90
2019-03-03T01:13:13.558Z,7.90
2019-03-03T01:16:01.487Z,7.90
2019-03-03T01:18:49.925Z,7.90
2019-03-03T01:21:28.641Z,8.00
2019-03-03T01:24:11.207Z,8.00
2019-03-03T01:26:41.803Z,8.00
2019-03-03T01:29:12.317Z,7.90
2019-03-03T01:31:42.839Z,7.90
2019-03-03T01:34:13.383Z,7.90
2019-03-03T01:36:43.605Z,7.90
2019-03-03T01:39:14.747Z,7.80
2019-03-03T01:41:45.107Z,7.80
2019-03-03T01:44:15.302Z,7.90
2019-03-03T01:46:45.734Z,7.90
2019-03-03T01:49:16.274Z,7.80
2019-03-03T01:51:46.795Z,7.80
2019-03-03T01:54:17.073Z,7.80
2019-03-03T01:56:47.265Z,7.80
2019-03-03T01:59:17.878Z,7.80
2019-03-03T02:01:48.098Z,7.80
2019-03-03T02:04:18.929Z,7.80
2019-03-03T02:06:49.520Z,7.80
2019-03-03T02:09:19.813Z,7.80
2019-03-03T02:11:50.095Z,7.80
2019-03-03T02:14:20.697Z,7.70
2019-03-03T02:16:51.307Z,7.70
2019-03-03T02:19:21.863Z,7.70
2019-03-03T02:21:52.479Z,7.70
2019-03-03T02:24:23.115Z,7.70
2019-03-03T02:26:53.380Z,7.70
2019-03-03T02:29:24.068Z,7.70
2019-03-03T02:31:54.680Z,7.70
2019-03-03T02:34:25.017Z,7.70
2019-03-03T02:36:55.268Z,7.70
2019-03-03T02:39:25.818Z,7.70
2019-03-03T02:41:56.476Z,7.70
2019-03-03T02:44:27.058Z,7.70
2019-03-03T02:46:57.621Z,7.70
2019-03-03T02:49:28.004Z,7.70
2019-03-03T02:51:58.483Z,7.70
2019-03-03T02:54:29.028Z,7.60
2019-03-03T02:56:58.935Z,7.70
2019-03-03T02:59:29.568Z,7.70
2019-03-03T03:02:03.509Z,7.70
2019-03-03T03:04:33.451Z,7.70
2019-03-03T03:07:21.182Z,7.70
2019-03-03T03:10:10.123Z,7.70
2019-03-03T03:12:57.349Z,7.70
2019-03-03T03:15:43.965Z,7.80
2019-03-03T03:18:22.962Z,7.80
2019-03-03T03:21:18.473Z,7.90
2019-03-03T03:23:59.436Z,7.90
2019-03-03T03:26:45.211Z,8.00
2019-03-03T03:29:23.414Z,8.00
2019-03-03T03:32:11.653Z,8.00
2019-03-03T03:35:03.991Z,7.90
2019-03-03T03:37:51.917Z,7.90
2019-03-03T03:40:39.742Z,8.00
2019-03-03T03:43:15.547Z,8.00
2019-03-03T03:45:56.864Z,8.00
2019-03-03T03:49:01.277Z,8.00
2019-03-03T03:52:01.171Z,7.90
2019-03-03T03:54:44.086Z,7.90
2019-03-03T03:57:32.325Z,7.80
2019-03-03T04:00:15.101Z,7.70
2019-03-03T04:03:04.503Z,7.70
2019-03-03T04:05:43.729Z,7.60
2019-03-03T04:08:30.636Z,7.60
2019-03-03T04:11:15.589Z,7.60
2019-03-03T04:13:59.752Z,7.50
2019-03-03T04:16:38.554Z,7.50
2019-03-03T04:19:23.931Z,7.50
2019-03-03T04:22:15.955Z,7.50
2019-03-03T04:25:01.732Z,7.50
2019-03-03T04:27:49.356Z,7.50
2019-03-03T04:30:41.368Z,7.50
2019-03-03T04:33:33.403Z,7.50
2019-03-03T04:36:22.753Z,7.40
2019-03-03T04:39:30.131Z,7.50
2019-03-03T04:42:18.061Z,7.50
2019-03-03T04:45:03.021Z,7.50
2019-03-03T04:47:52.170Z,7.50
2019-03-03T04:50:35.185Z,7.40
2019-03-03T04:53:15.649Z,7.50
2019-03-03T04:56:10.325Z,7.50
2019-03-03T04:58:50.997Z,7.50
2019-03-03T05:01:39.129Z,7.50
2019-03-03T05:04:37.501Z,7.50
2019-03-03T05:07:14.987Z,7.50
2019-03-03T05:09:59.787Z,7.50
2019-03-03T05:13:07.215Z,7.50
2019-03-03T05:15:55.251Z,7.50
2019-03-03T05:18:53.307Z,7.50
2019-03-03T05:21:23.942Z,7.50
2019-03-03T05:23:53.851Z,7.50
2019-03-03T05:26:24.082Z,7.50
2019-03-03T05:28:54.716Z,7.50
2019-03-03T05:31:24.875Z,7.40
2019-03-03T05:33:55.008Z,7.40
2019-03-03T05:36:25.287Z,7.40
2019-03-03T05:38:55.855Z,7.40
2019-03-03T05:41:26.390Z,7.40
2019-03-03T05:43:56.915Z,7.40
2019-03-03T05:46:27.355Z,7.40
2019-03-03T05:48:57.500Z,7.40
2019-03-03T05:51:28.175Z,7.30
2019-03-03T05:53:58.631Z,7.30
2019-03-03T05:56:29.075Z,7.30
2019-03-03T05:58:59.291Z,7.30
2019-03-03T06:01:29.556Z,7.30
2019-03-03T06:04:00.156Z,7.30
2019-03-03T06:06:30.757Z,7.30
2019-03-03T06:09:01.328Z,7.30
2019-03-03T06:11:31.775Z,7.30
2019-03-03T06:14:02.050Z,7.30
2019-03-03T06:16:32.630Z,7.30
2019-03-03T06:19:03.322Z,7.30
2019-03-03T06:21:33.931Z,7.30
2019-03-03T06:24:04.175Z,7.30
2019-03-03T06:26:34.695Z,7.30
2019-03-03T06:29:04.863Z,7.30
2019-03-03T06:31:35.043Z,7.30
2019-03-03T06:34:05.681Z,7.30
2019-03-03T06:36:36.163Z,7.30
2019-03-03T06:39:07.431Z,7.30
2019-03-03T06:41:37.620Z,7.30
2019-03-03T06:44:08.168Z,7.30
2019-03-03T06:46:38.422Z,7.30
2019-03-03T06:49:08.917Z,7.30
2019-03-03T06:51:39.355Z,7.30
2019-03-03T06:54:09.898Z,7.30
2019-03-03T06:56:40.637Z,7.30
2019-03-03T06:59:11.389Z,7.40
2019-03-03T07:01:41.983Z,7.40
2019-03-03T07:04:12.533Z,7.30
2019-03-03T07:06:42.904Z,7.40
2019-03-03T07:09:13.461Z,7.40
2019-03-03T07:11:44.035Z,7.40
2019-03-03T07:14:14.638Z,7.50
2019-03-03T07:16:44.919Z,7.50
2019-03-03T07:19:15.405Z,7.60
2019-03-03T07:21:45.895Z,7.70
2019-03-03T07:24:16.157Z,7.70
2019-03-03T07:26:46.690Z,7.80
2019-03-03T07:29:17.229Z,7.80
2019-03-03T07:31:47.570Z,7.80
2019-03-03T07:34:18.185Z,7.90
2019-03-03T07:36:48.735Z,7.80
2019-03-03T07:39:20.447Z,7.90
2019-03-03T07:41:50.325Z,7.90
2019-03-03T07:44:20.799Z,7.90
2019-03-03T07:46:51.026Z,8.00
2019-03-03T07:49:21.227Z,8.00
2019-03-03T07:51:51.889Z,8.10
2019-03-03T07:54:22.293Z,8.10
2019-03-03T07:56:53.023Z,8.20
2019-03-03T07:59:22.993Z,8.40
2019-03-03T08:01:53.534Z,8.40
2019-03-03T08:04:24.158Z,8.40
2019-03-03T08:06:54.330Z,8.50
2019-03-03T08:09:24.995Z,8.60
2019-03-03T08:11:55.559Z,8.70
2019-03-03T08:14:25.771Z,8.80
2019-03-03T08:16:55.996Z,8.80
2019-03-03T08:19:26.420Z,8.90
2019-03-03T08:21:56.927Z,9.00
2019-03-03T08:24:27.151Z,9.10
2019-03-03T08:26:57.508Z,9.20
2019-03-03T08:29:27.989Z,9.20
2019-03-03T08:31:58.511Z,9.30
2019-03-03T08:34:29.063Z,9.30
2019-03-03T08:37:00.268Z,9.40
2019-03-03T08:39:30.647Z,9.40
2019-03-03T08:42:22.669Z,9.40
2019-03-03T08:45:12.957Z,9.40
2019-03-03T08:48:04.975Z,9.40
2019-03-03T08:50:57.413Z,9.50
2019-03-03T08:53:46.658Z,9.60
2019-03-03T08:56:33.153Z,9.70
2019-03-03T08:59:19.655Z,9.70
2019-03-03T09:02:07.167Z,9.80
2019-03-03T09:05:08.507Z,9.80
2019-03-03T09:07:56.345Z,9.90
2019-03-03T09:10:48.667Z,9.90
2019-03-03T09:13:40.543Z,10.00
2019-03-03T09:16:35.675Z,10.00
2019-03-03T09:19:23.297Z,10.10
2019-03-03T09:22:04.752Z,10.10
2019-03-03T09:24:57.321Z,10.20
2019-03-03T09:27:40.531Z,10.30
2019-03-03T09:30:29.068Z,10.40
2019-03-03T09:33:18.022Z,10.50
2019-03-03T09:35:55.719Z,10.50
2019-03-03T09:38:55.615Z,10.60
2019-03-03T09:41:42.429Z,10.60
2019-03-03T09:44:43.865Z,10.70
2019-03-03T09:47:33.117Z,10.70
2019-03-03T09:50:34.873Z,10.70
2019-03-03T09:53:32.895Z,10.70
2019-03-03T09:56:12.883Z,10.90
2019-03-03T09:59:01.008Z,10.90
2019-03-03T10:01:48.117Z,11.00
2019-03-03T10:04:55.793Z,11.00
2019-03-03T10:07:42.186Z,11.00
2019-03-03T10:10:27.303Z,11.00
2019-03-03T10:13:15.197Z,11.10
2019-03-03T10:16:04.544Z,11.10
2019-03-03T10:19:10.693Z,11.10
2019-03-03T10:21:57.015Z,11.20
2019-03-03T10:24:45.003Z,11.10
2019-03-03T10:27:25.474Z,11.10
2019-03-03T10:30:24.031Z,11.20
2019-03-03T10:33:15.863Z,11.20
2019-03-03T10:35:52.833Z,11.10
2019-03-03T10:38:39.137Z,11.20
2019-03-03T10:41:31.155Z,11.30
2019-03-03T10:44:08.962Z,11.40
2019-03-03T10:46:56.565Z,11.30
2019-03-03T10:49:44.695Z,11.30
2019-03-03T10:52:27.541Z,11.30
2019-03-03T10:55:22.478Z,11.30
2019-03-03T10:58:09.366Z,11.40
2019-03-03T11:01:01.941Z,11.50
2019-03-03T11:04:03.131Z,11.70
2019-03-03T11:06:52.019Z,11.80
2019-03-03T11:09:41.481Z,11.80
2019-03-03T11:12:21.429Z,11.90
2019-03-03T11:15:04.960Z,12.00
2019-03-03T11:17:42.763Z,12.10
2019-03-03T11:20:34.883Z,12.10
2019-03-03T11:23:24.239Z,11.90
2019-03-03T11:26:13.517Z,11.90
2019-03-03T11:28:58.519Z,12.00
2019-03-03T11:31:46.503Z,12.10
2019-03-03T11:34:42.102Z,12.10
2019-03-03T11:37:22.148Z,12.00
2019-03-03T11:40:23.287Z,11.90
2019-03-03T11:43:02.922Z,11.90
2019-03-03T11:45:55.145Z,11.90
2019-03-03T11:48:42.975Z,11.90
2019-03-03T11:51:41.443Z,11.80
2019-03-03T11:54:33.867Z,11.80
2019-03-03T11:57:23.226Z,11.80
2019-03-03T12:00:14.944Z,11.90
2019-03-03T12:03:00.012Z,12.00
2019-03-03T12:05:49.368Z,12.00
2019-03-03T12:08:41.287Z,12.10
2019-03-03T12:11:36.877Z,12.20
2019-03-03T12:14:18.587Z,12.30
2019-03-03T12:16:59.403Z,12.50
2019-03-03T12:19:40.823Z,12.60
2019-03-03T12:22:21.642Z,12.60
2019-03-03T12:25:00.725Z,12.60
2019-03-03T12:27:48.464Z,12.50
2019-03-03T12:30:40.795Z,12.50
2019-03-03T12:33:35.039Z,12.40
2019-03-03T12:36:35.980Z,12.30
2019-03-03T12:39:15.706Z,12.40
2019-03-03T12:42:04.166Z,12.40
2019-03-03T12:44:43.098Z,12.50
2019-03-03T12:47:31.521Z,12.40
2019-03-03T12:50:13.829Z,12.40
2019-03-03T12:53:05.682Z,12.40
2019-03-03T12:55:46.084Z,12.30
2019-03-03T12:58:31.355Z,12.30
2019-03-03T13:01:19.591Z,12.30
2019-03-03T13:04:20.720Z,12.30
2019-03-03T13:07:09.260Z,12.40
2019-03-03T13:10:01.302Z,12.40
2019-03-03T13:12:38.273Z,12.60
2019-03-03T13:15:29.256Z,12.70
2019-03-03T13:18:16.886Z,12.70
2019-03-03T13:21:02.985Z,12.80
2019-03-03T13:23:48.141Z,12.90
2019-03-03T13:26:43.285Z,13.00
2019-03-03T13:29:36.595Z,13.00
2019-03-03T13:32:24.435Z,13.10
2019-03-03T13:35:16.651Z,13.30
2019-03-03T13:38:11.836Z,13.40
2019-03-03T13:40:56.545Z,13.50
2019-03-03T13:43:27.255Z,13.60
2019-03-03T13:45:57.135Z,13.60
2019-03-03T13:48:27.365Z,13.70
2019-03-03T13:50:57.865Z,13.70
2019-03-03T13:53:28.459Z,13.80
2019-03-03T13:55:58.656Z,13.90
2019-03-03T13:58:29.185Z,14.10
2019-03-03T14:01:00.043Z,14.30
2019-03-03T14:03:30.511Z,14.40
2019-03-03T14:06:00.753Z,14.40
2019-03-03T14:08:31.351Z,14.40
2019-03-03T14:11:01.825Z,14.40
2019-03-03T14:13:32.412Z,14.30
2019-03-03T14:16:03.006Z,14.30
2019-03-03T14:18:33.172Z,14.30
2019-03-03T14:21:03.743Z,14.20
2019-03-03T14:23:34.113Z,14.20
2019-03-03T14:26:04.421Z,14.10
2019-03-03T14:28:34.321Z,14.10
2019-03-03T14:31:04.899Z,14.00
2019-03-03T14:33:35.477Z,13.80
2019-03-03T14:36:06.097Z,13.80
2019-03-03T14:38:36.388Z,13.70
2019-03-03T14:41:07.123Z,13.60
2019-03-03T14:43:37.273Z,13.50
2019-03-03T14:46:07.842Z,13.50
2019-03-03T14:48:38.335Z,13.50
2019-03-03T14:51:08.935Z,13.40
2019-03-03T14:53:39.160Z,13.50
2019-03-03T14:56:09.914Z,13.40
2019-03-03T14:58:40.347Z,13.30
2019-03-03T15:01:10.648Z,13.20
2019-03-03T15:03:40.943Z,13.10
2019-03-03T15:06:11.205Z,13.10
2019-03-03T15:08:41.840Z,13.00
2019-03-03T15:11:11.927Z,12.90
2019-03-03T15:13:42.609Z,12.90
2019-03-03T15:16:12.932Z,12.90
2019-03-03T15:18:43.139Z,12.80
2019-03-03T15:21:13.063Z,12.80
2019-03-03T15:23:43.613Z,12.80
2019-03-03T15:26:14.131Z,12.80
2019-03-03T15:28:44.360Z,12.80
2019-03-03T15:31:15.094Z,12.80
2019-03-03T15:33:45.011Z,12.80
2019-03-03T15:36:15.601Z,12.80
2019-03-03T15:38:46.162Z,12.90
2019-03-03T15:41:15.987Z,12.80
2019-03-03T15:43:46.621Z,12.80
2019-03-03T15:46:16.850Z,12.70
2019-03-03T15:48:47.377Z,12.70
2019-03-03T15:51:17.621Z,12.60
2019-03-03T15:53:47.889Z,12.60
2019-03-03T15:56:18.477Z,12.50
2019-03-03T15:58:55.396Z,12.50
2019-03-03T16:01:21.375Z,12.50
2019-03-03T16:03:51.907Z,12.40
2019-03-03T16:06:22.558Z,12.40
2019-03-03T16:08:53.073Z,12.30
2019-03-03T16:11:23.611Z,12.30
2019-03-03T16:13:54.126Z,12.40
2019-03-03T16:16:24.407Z,12.30
2019-03-03T16:18:54.683Z,12.30
2019-03-03T16:21:24.603Z,12.30
2019-03-03T16:23:55.168Z,12.20
2019-03-03T16:26:40.550Z,12.20
2019-03-03T16:29:08.021Z,12.20
2019-03-03T16:31:38.499Z,12.10
2019-03-03T16:34:09.016Z,12.00
2019-03-03T16:36:39.619Z,12.00
2019-03-03T16:39:10.880Z,11.80
2019-03-03T16:41:41.387Z,11.80
2019-03-03T16:44:12.133Z,11.70
2019-03-03T16:46:42.529Z,11.70
2019-03-03T16:49:13.126Z,11.60
2019-03-03T16:51:43.687Z,11.60
2019-03-03T16:54:14.237Z,11.50
2019-03-03T16:56:44.857Z,11.40
2019-03-03T16:59:15.381Z,11.40
2019-03-03T17:01:45.711Z,11.30
2019-03-03T17:04:16.266Z,11.30
2019-03-03T17:06:46.673Z,11.20
2019-03-03T17:09:17.171Z,11.20
2019-03-03T17:11:47.781Z,11.20
2019-03-03T17:14:18.061Z,11.10
2019-03-03T17:16:48.258Z,11.10
2019-03-03T17:19:18.924Z,11.10
2019-03-03T17:21:49.117Z,11.10
2019-03-03T17:24:19.644Z,11.10
2019-03-03T17:26:50.067Z,11.10
2019-03-03T17:29:20.695Z,11.10
2019-03-03T17:31:50.999Z,11.10
2019-03-03T17:34:21.194Z,11.00
2019-03-03T17:36:51.475Z,11.00
2019-03-03T17:39:21.698Z,10.90
2019-03-03T17:41:52.293Z,10.90
2019-03-03T17:44:22.400Z,10.80
2019-03-03T17:46:52.884Z,10.80
2019-03-03T17:49:23.269Z,10.80
2019-03-03T17:51:53.998Z,10.70
2019-03-03T17:54:24.484Z,10.60
2019-03-03T17:56:54.762Z,10.60
2019-03-03T17:59:25.247Z,10.60
2019-03-03T18:01:56.025Z,10.50
2019-03-03T18:04:26.663Z,10.50
2019-03-03T18:06:56.841Z,10.50
2019-03-03T18:09:27.108Z,10.40
2019-03-03T18:11:57.337Z,10.40
2019-03-03T18:14:27.465Z,10.40
2019-03-03T18:16:58.271Z,10.30
2019-03-03T18:19:28.866Z,10.20
2019-03-03T18:21:59.487Z,10.20
2019-03-03T18:24:29.962Z,10.20
2019-03-03T18:27:00.101Z,10.20
2019-03-03T18:29:30.744Z,10.10
2019-03-03T18:32:01.403Z,10.10
2019-03-03T18:34:31.829Z,10.00
2019-03-03T18:37:02.464Z,10.00
2019-03-03T18:39:33.048Z,10.00
2019-03-03T18:42:03.632Z,10.00
2019-03-03T18:44:34.093Z,10.00
2019-03-03T18:47:04.618Z,10.00
2019-03-03T18:49:35.317Z,10.00
2019-03-03T18:52:07.683Z,9.90
2019-03-03T18:54:39.004Z,9.90
2019-03-03T18:57:09.308Z,9.90
2019-03-03T18:59:39.874Z,9.90
2019-03-03T19:02:10.535Z,9.80
2019-03-03T19:04:40.767Z,9.80
2019-03-03T19:07:11.413Z,9.70
2019-03-03T19:09:41.588Z,9.70
2019-03-03T19:12:12.343Z,9.70
2019-03-03T19:14:42.592Z,9.70
2019-03-03T19:17:13.394Z,9.60
2019-03-03T19:19:44.776Z,9.60
2019-03-03T19:22:15.247Z,9.60
2019-03-03T19:24:45.816Z,9.60
2019-03-03T19:27:15.799Z,9.60
2019-03-03T19:29:46.480Z,9.50
2019-03-03T19:32:17.120Z,9.50
2019-03-03T19:34:47.724Z,9.40
2019-03-03T19:37:18.130Z,9.30
2019-03-03T19:39:48.824Z,9.20
2019-03-03T19:42:19.583Z,9.20
2019-03-03T19:44:49.994Z,9.10
2019-03-03T19:47:20.743Z,9.10
2019-03-03T19:49:51.308Z,9.00
2019-03-03T19:52:20.753Z,9.00
2019-03-03T19:54:51.405Z,9.00
2019-03-03T19:57:21.886Z,9.00
2019-03-03T19:59:52.192Z,9.00
2019-03-03T20:02:22.537Z,9.00
2019-03-03T20:04:52.738Z,9.10
2019-03-03T20:07:23.424Z,9.10
2019-03-03T20:09:55.590Z,9.10
2019-03-03T20:12:26.197Z,9.10
2019-03-03T20:14:56.407Z,9.10
2019-03-03T20:17:26.560Z,9.20
2019-03-03T20:19:57.231Z,9.20
2019-03-03T20:22:27.851Z,9.20
2019-03-03T20:24:58.097Z,9.20
2019-03-03T20:27:28.616Z,9.20
2019-03-03T20:29:59.267Z,9.20
2019-03-03T20:32:29.944Z,9.20
2019-03-03T20:35:00.495Z,9.20
2019-03-03T20:37:30.846Z,9.10
2019-03-03T20:40:01.096Z,9.20
2019-03-03T20:42:31.763Z,9.20
2019-03-03T20:45:02.345Z,9.10
2019-03-03T20:47:32.799Z,9.10
2019-03-03T20:50:03.437Z,9.10
2019-03-03T20:52:34.143Z,9.10
2019-03-03T20:55:04.616Z,9.10
2019-03-03T20:57:36.438Z,9.10
2019-03-03T21:00:09.920Z,9.00
2019-03-03T21:02:40.490Z,9.00
2019-03-03T21:05:11.013Z,9.00
2019-03-03T21:07:50.905Z,9.00
2019-03-03T21:10:16.358Z,9.00
2019-03-03T21:12:46.734Z,9.00
2019-03-03T21:15:16.896Z,9.00
2019-03-03T21:17:47.487Z,8.90
2019-03-03T21:20:18.869Z,8.90
2019-03-03T21:22:49.356Z,8.90
2019-03-03T21:25:19.866Z,8.80
2019-03-03T21:27:50.487Z,8.80
2019-03-03T21:30:22.040Z,8.80
2019-03-03T21:33:10.902Z,8.80
2019-03-03T21:35:41.639Z,8.80
2019-03-03T21:38:11.976Z,8.80
2019-03-03T21:40:42.603Z,8.80
2019-03-03T21:43:12.777Z,8.80
2019-03-03T21:45:43.203Z,8.80
2019-03-03T21:48:13.517Z,8.80
2019-03-03T21:50:44.045Z,8.80
2019-03-03T21:53:14.480Z,8.80
2019-03-03T21:55:44.832Z,8.80
2019-03-03T21:58:14.999Z,8.80
2019-03-03T22:00:45.651Z,8.80
2019-03-03T22:03:16.620Z,8.80
2019-03-03T22:05:47.169Z,8.80
2019-03-03T22:08:17.403Z,8.80
2019-03-03T22:10:48.039Z,8.80
2019-03-03T22:13:18.294Z,8.70
2019-03-03T22:15:48.863Z,8.70
2019-03-03T22:18:19.068Z,8.70
2019-03-03T22:20:49.624Z,8.70
2019-03-03T22:23:20.127Z,8.60
2019-03-03T22:25:50.269Z,8.60
2019-03-03T22:28:20.922Z,8.60
2019-03-03T22:30:51.682Z,8.50
2019-03-03T22:33:21.891Z,8.50
2019-03-03T22:35:52.124Z,8.50
2019-03-03T22:38:22.377Z,8.50
2019-03-03T22:40:52.597Z,8.50
2019-03-03T22:43:22.794Z,8.50
2019-03-03T22:45:53.056Z,8.40
2019-03-03T22:48:23.199Z,8.50
2019-03-03T22:50:53.645Z,8.40
2019-03-03T22:53:24.142Z,8.40
2019-03-03T22:55:54.634Z,8.40
2019-03-03T22:58:25.129Z,8.40
2019-03-03T23:01:05.446Z,8.40
2019-03-03T23:04:18.353Z,8.50
2019-03-03T23:07:09.150Z,8.50
2019-03-03T23:10:17.224Z,8.50
2019-03-03T23:13:03.314Z,8.60
2019-03-03T23:16:23.377Z,8.70
2019-03-03T23:19:34.438Z,8.70
2019-03-03T23:22:22.467Z,8.80
2019-03-03T23:25:33.418Z,8.80
2019-03-03T23:28:03.881Z,8.90
2019-03-03T23:30:34.130Z,8.80
2019-03-03T23:33:04.663Z,8.90
2019-03-03T23:35:34.913Z,8.90
2019-03-03T23:38:05.445Z,8.90
2019-03-03T23:40:35.925Z,8.90
2019-03-03T23:43:06.097Z,9.00
2019-03-03T23:45:36.656Z,9.00
2019-03-03T23:48:06.872Z,9.00
2019-03-03T23:50:37.443Z,9.00
2019-03-03T23:53:08.018Z,9.00
2019-03-03T23:55:38.503Z,9.00
2019-03-03T23:58:08.713Z,9.10
